sensor_id;sensor_type;location;lat;lon;timestamp;pressure;altitude;pressure_sealevel;temperature;humidity
57600;BME280;43426;43.594;24.334;2023-05-03T00:01:47;101561.81;;;12.40;50.11
57600;BME280;43426;43.594;24.334;2023-05-03T00:04:14;101554.22;;;12.43;50.31
57600;BME280;43426;43.594;24.334;2023-05-03T00:06:41;101561.63;;;12.41;50.06
57600;BME280;43426;43.594;24.334;2023-05-03T00:09:07;101553.03;;;12.46;50.15
57600;BME280;43426;43.594;24.334;2023-05-03T00:11:34;101552.56;;;12.59;49.50
57600;BME280;43426;43.594;24.334;2023-05-03T00:14:00;101547.09;;;12.42;49.46
57600;BME280;43426;43.594;24.334;2023-05-03T00:16:25;101542.53;;;12.43;49.54
57600;BME280;43426;43.594;24.334;2023-05-03T00:18:50;101547.78;;;12.53;48.81
57600;BME280;43426;43.594;24.334;2023-05-03T00:21:15;101548.13;;;12.50;48.60
57600;BME280;43426;43.594;24.334;2023-05-03T00:23:41;101546.44;;;12.49;48.99
57600;BME280;43426;43.594;24.334;2023-05-03T00:26:06;101542.03;;;12.39;49.19
57600;BME280;43426;43.594;24.334;2023-05-03T00:28:31;101535.91;;;12.37;49.30
57600;BME280;43426;43.594;24.334;2023-05-03T00:31:04;101533.00;;;12.31;49.06
57600;BME280;43426;43.594;24.334;2023-05-03T00:33:30;101541.63;;;12.26;49.42
57600;BME280;43426;43.594;24.334;2023-05-03T00:35:55;101531.78;;;12.25;50.00
57600;BME280;43426;43.594;24.334;2023-05-03T00:38:20;101538.25;;;12.24;49.42
57600;BME280;43426;43.594;24.334;2023-05-03T00:40:52;101538.91;;;12.26;49.57
57600;BME280;43426;43.594;24.334;2023-05-03T00:43:17;101530.47;;;12.29;49.49
57600;BME280;43426;43.594;24.334;2023-05-03T00:45:42;101516.09;;;12.29;49.65
57600;BME280;43426;43.594;24.334;2023-05-03T00:48:10;101537.00;;;12.18;49.49
57600;BME280;43426;43.594;24.334;2023-05-03T00:50:36;101534.16;;;12.20;48.82
57600;BME280;43426;43.594;24.334;2023-05-03T00:53:01;101533.63;;;12.16;49.41
57600;BME280;43426;43.594;24.334;2023-05-03T00:55:28;101539.19;;;12.15;49.13
57600;BME280;43426;43.594;24.334;2023-05-03T00:57:54;101535.78;;;12.13;49.56
57600;BME280;43426;43.594;24.334;2023-05-03T01:00:22;101536.88;;;12.20;49.58
57600;BME280;43426;43.594;24.334;2023-05-03T01:02:48;101538.88;;;12.18;49.40
57600;BME280;43426;43.594;24.334;2023-05-03T01:05:14;101532.69;;;12.34;48.94
57600;BME280;43426;43.594;24.334;2023-05-03T01:12:54;101538.88;;;12.18;47.10
57600;BME280;43426;43.594;24.334;2023-05-03T01:17:53;101543.47;;;12.25;46.91
57600;BME280;43426;43.594;24.334;2023-05-03T01:20:22;101538.25;;;12.24;47.23
57600;BME280;43426;43.594;24.334;2023-05-03T01:23:00;101542.44;;;12.26;47.76
57600;BME280;43426;43.594;24.334;2023-05-03T01:25:29;101542.28;;;12.20;47.08
57600;BME280;43426;43.594;24.334;2023-05-03T01:27:54;101534.66;;;12.23;48.57
57600;BME280;43426;43.594;24.334;2023-05-03T01:30:21;101535.00;;;12.20;48.21
57600;BME280;43426;43.594;24.334;2023-05-03T01:35:39;101534.19;;;12.28;47.40
57600;BME280;43426;43.594;24.334;2023-05-03T01:38:08;101538.25;;;12.24;47.41
57600;BME280;43426;43.594;24.334;2023-05-03T01:43:19;101518.22;;;12.17;47.68
57600;BME280;43426;43.594;24.334;2023-05-03T01:45:45;101522.09;;;12.14;48.14
57600;BME280;43426;43.594;24.334;2023-05-03T01:48:14;101521.44;;;12.12;48.02
57600;BME280;43426;43.594;24.334;2023-05-03T01:50:40;101516.69;;;12.14;47.57
57600;BME280;43426;43.594;24.334;2023-05-03T01:53:05;101515.03;;;12.13;48.24
57600;BME280;43426;43.594;24.334;2023-05-03T01:55:30;101512.09;;;12.06;47.83
57600;BME280;43426;43.594;24.334;2023-05-03T01:57:56;101517.81;;;11.95;48.27
57600;BME280;43426;43.594;24.334;2023-05-03T02:00:21;101499.81;;;11.86;48.53
57600;BME280;43426;43.594;24.334;2023-05-03T02:02:47;101497.00;;;11.69;48.47
57600;BME280;43426;43.594;24.334;2023-05-03T02:05:12;101491.53;;;11.61;49.01
57600;BME280;43426;43.594;24.334;2023-05-03T02:07:37;101479.72;;;11.62;48.84
57600;BME280;43426;43.594;24.334;2023-05-03T02:10:04;101484.19;;;11.71;49.16
57600;BME280;43426;43.594;24.334;2023-05-03T02:12:29;101483.00;;;11.74;49.16
57600;BME280;43426;43.594;24.334;2023-05-03T02:14:54;101483.00;;;11.74;49.80
57600;BME280;43426;43.594;24.334;2023-05-03T02:17:19;101484.91;;;11.82;49.23
57600;BME280;43426;43.594;24.334;2023-05-03T02:19:46;101487.72;;;11.98;48.33
57600;BME280;43426;43.594;24.334;2023-05-03T02:22:11;101483.94;;;11.91;49.19
57600;BME280;43426;43.594;24.334;2023-05-03T02:24:36;101480.53;;;11.89;47.90
57600;BME280;43426;43.594;24.334;2023-05-03T02:27:02;101486.38;;;12.02;47.29
57600;BME280;43426;43.594;24.334;2023-05-03T02:29:30;101502.09;;;11.99;46.91
57600;BME280;43426;43.594;24.334;2023-05-03T02:31:56;101509.97;;;11.92;46.47
57600;BME280;43426;43.594;24.334;2023-05-03T02:34:22;101515.78;;;11.97;46.36
57600;BME280;43426;43.594;24.334;2023-05-03T02:36:50;101514.59;;;12.00;46.44
57600;BME280;43426;43.594;24.334;2023-05-03T02:39:15;101510.38;;;11.97;46.20
57600;BME280;43426;43.594;24.334;2023-05-03T02:41:41;101511.06;;;11.99;46.57
57600;BME280;43426;43.594;24.334;2023-05-03T02:44:06;101510.91;;;12.01;46.57
57600;BME280;43426;43.594;24.334;2023-05-03T02:46:31;101505.50;;;12.01;45.72
57600;BME280;43426;43.594;24.334;2023-05-03T02:48:57;101513.78;;;11.99;46.08
57600;BME280;43426;43.594;24.334;2023-05-03T02:51:22;101506.66;;;11.98;46.13
57600;BME280;43426;43.594;24.334;2023-05-03T02:53:50;101506.41;;;11.91;45.87
57600;BME280;43426;43.594;24.334;2023-05-03T02:56:16;101506.50;;;11.73;46.70
57600;BME280;43426;43.594;24.334;2023-05-03T02:58:41;101502.56;;;11.68;47.38
57600;BME280;43426;43.594;24.334;2023-05-03T03:01:06;101487.69;;;11.64;47.92
57600;BME280;43426;43.594;24.334;2023-05-03T03:03:31;101495.19;;;11.52;48.35
57600;BME280;43426;43.594;24.334;2023-05-03T03:05:57;101489.59;;;11.45;48.18
57600;BME280;43426;43.594;24.334;2023-05-03T03:08:22;101502.63;;;11.50;47.99
57600;BME280;43426;43.594;24.334;2023-05-03T03:10:47;101508.63;;;11.44;48.14
57600;BME280;43426;43.594;24.334;2023-05-03T03:13:13;101511.28;;;11.53;48.12
57600;BME280;43426;43.594;24.334;2023-05-03T03:15:39;101510.34;;;11.45;48.86
57600;BME280;43426;43.594;24.334;2023-05-03T03:18:04;101504.31;;;11.51;48.73
57600;BME280;43426;43.594;24.334;2023-05-03T03:20:29;101520.44;;;11.61;48.10
57600;BME280;43426;43.594;24.334;2023-05-03T03:22:55;101517.34;;;11.55;48.05
57600;BME280;43426;43.594;24.334;2023-05-03T03:25:20;101520.34;;;11.70;48.35
57600;BME280;43426;43.594;24.334;2023-05-03T03:27:45;101523.72;;;11.72;47.88
57600;BME280;43426;43.594;24.334;2023-05-03T03:30:10;101525.63;;;11.80;48.11
57600;BME280;43426;43.594;24.334;2023-05-03T03:32:36;101528.81;;;11.75;48.17
57600;BME280;43426;43.594;24.334;2023-05-03T03:35:01;101516.63;;;11.71;48.88
57600;BME280;43426;43.594;24.334;2023-05-03T03:37:26;101512.78;;;11.82;48.82
57600;BME280;43426;43.594;24.334;2023-05-03T03:39:52;101513.00;;;11.89;49.13
57600;BME280;43426;43.594;24.334;2023-05-03T03:42:18;101509.41;;;11.80;49.24
57600;BME280;43426;43.594;24.334;2023-05-03T03:44:43;101516.19;;;11.84;49.51
57600;BME280;43426;43.594;24.334;2023-05-03T03:47:08;101523.88;;;11.71;50.21
57600;BME280;43426;43.594;24.334;2023-05-03T03:49:34;101521.66;;;11.66;51.01
57600;BME280;43426;43.594;24.334;2023-05-03T03:52:00;101534.13;;;11.59;51.24
57600;BME280;43426;43.594;24.334;2023-05-03T03:54:25;101553.38;;;11.64;51.81
57600;BME280;43426;43.594;24.334;2023-05-03T03:56:50;101563.81;;;11.77;52.07
57600;BME280;43426;43.594;24.334;2023-05-03T03:59:16;101559.50;;;11.92;52.26
57600;BME280;43426;43.594;24.334;2023-05-03T04:01:41;101558.41;;;11.77;53.36
57600;BME280;43426;43.594;24.334;2023-05-03T04:04:07;101561.44;;;11.56;54.11
57600;BME280;43426;43.594;24.334;2023-05-03T04:06:32;101571.97;;;11.59;54.90
57600;BME280;43426;43.594;24.334;2023-05-03T04:08:57;101559.00;;;11.45;55.99
57600;BME280;43426;43.594;24.334;2023-05-03T04:11:22;101555.28;;;11.46;56.95
57600;BME280;43426;43.594;24.334;2023-05-03T04:13:48;101545.03;;;11.49;57.40
57600;BME280;43426;43.594;24.334;2023-05-03T04:16:13;101545.22;;;11.56;57.67
57600;BME280;43426;43.594;24.334;2023-05-03T04:18:39;101549.63;;;11.57;58.12
57600;BME280;43426;43.594;24.334;2023-05-03T04:21:05;101561.75;;;11.53;58.10
57600;BME280;43426;43.594;24.334;2023-05-03T04:23:30;101564.78;;;11.50;57.95
57600;BME280;43426;43.594;24.334;2023-05-03T04:25:56;101559.75;;;11.55;58.66
57600;BME280;43426;43.594;24.334;2023-05-03T04:28:22;101580.75;;;11.61;58.87
57600;BME280;43426;43.594;24.334;2023-05-03T04:30:47;101588.97;;;11.78;58.93
57600;BME280;43426;43.594;24.334;2023-05-03T04:33:13;101583.41;;;11.79;58.88
57600;BME280;43426;43.594;24.334;2023-05-03T04:35:39;101581.84;;;11.95;59.08
57600;BME280;43426;43.594;24.334;2023-05-03T04:38:04;101572.13;;;12.02;58.79
57600;BME280;43426;43.594;24.334;2023-05-03T04:40:29;101571.38;;;12.26;58.44
57600;BME280;43426;43.594;24.334;2023-05-03T04:42:55;101583.25;;;12.33;57.46
57600;BME280;43426;43.594;24.334;2023-05-03T04:45:21;101588.97;;;12.65;56.93
57600;BME280;43426;43.594;24.334;2023-05-03T04:47:47;101585.59;;;12.71;56.47
57600;BME280;43426;43.594;24.334;2023-05-03T04:50:13;101596.72;;;13.19;56.12
57600;BME280;43426;43.594;24.334;2023-05-03T04:52:39;101601.84;;;13.38;55.14
57600;BME280;43426;43.594;24.334;2023-05-03T04:55:04;101599.72;;;12.99;55.45
57600;BME280;43426;43.594;24.334;2023-05-03T04:57:30;101613.63;;;12.96;56.62
57600;BME280;43426;43.594;24.334;2023-05-03T04:59:56;101624.31;;;13.06;56.47
57600;BME280;43426;43.594;24.334;2023-05-03T05:02:21;101629.31;;;12.84;57.36
57600;BME280;43426;43.594;24.334;2023-05-03T05:04:47;101619.66;;;12.82;57.82
57600;BME280;43426;43.594;24.334;2023-05-03T05:07:12;101616.31;;;12.88;57.42
57600;BME280;43426;43.594;24.334;2023-05-03T05:09:38;101616.44;;;12.78;57.27
57600;BME280;43426;43.594;24.334;2023-05-03T05:12:04;101612.41;;;12.90;57.46
57600;BME280;43426;43.594;24.334;2023-05-03T05:14:29;101612.06;;;12.85;56.93
57600;BME280;43426;43.594;24.334;2023-05-03T05:16:55;101601.41;;;12.84;57.60
57600;BME280;43426;43.594;24.334;2023-05-03T05:19:21;101615.13;;;12.99;58.05
57600;BME280;43426;43.594;24.334;2023-05-03T05:21:46;101629.56;;;13.07;57.83
57600;BME280;43426;43.594;24.334;2023-05-03T05:24:13;101620.44;;;13.17;57.63
57600;BME280;43426;43.594;24.334;2023-05-03T05:26:41;101621.09;;;13.10;57.08
57600;BME280;43426;43.594;24.334;2023-05-03T05:29:07;101621.13;;;13.27;57.60
57600;BME280;43426;43.594;24.334;2023-05-03T05:31:32;101627.00;;;12.98;57.29
57600;BME280;43426;43.594;24.334;2023-05-03T05:33:59;101630.03;;;12.94;57.67
57600;BME280;43426;43.594;24.334;2023-05-03T05:36:24;101631.22;;;12.92;58.10
57600;BME280;43426;43.594;24.334;2023-05-03T05:38:50;101627.84;;;12.98;58.82
57600;BME280;43426;43.594;24.334;2023-05-03T05:41:15;101653.09;;;13.15;58.21
57600;BME280;43426;43.594;24.334;2023-05-03T05:43:41;101646.66;;;13.08;58.27
57600;BME280;43426;43.594;24.334;2023-05-03T05:46:06;101645.13;;;13.14;58.92
57600;BME280;43426;43.594;24.334;2023-05-03T05:48:32;101644.47;;;13.11;57.94
57600;BME280;43426;43.594;24.334;2023-05-03T05:50:57;101638.00;;;12.96;58.86
57600;BME280;43426;43.594;24.334;2023-05-03T05:53:22;101642.22;;;12.90;59.20
57600;BME280;43426;43.594;24.334;2023-05-03T05:55:48;101649.00;;;12.94;58.56
57600;BME280;43426;43.594;24.334;2023-05-03T05:58:14;101647.53;;;13.08;58.84
57600;BME280;43426;43.594;24.334;2023-05-03T06:00:39;101655.97;;;13.14;59.08
57600;BME280;43426;43.594;24.334;2023-05-03T06:03:05;101655.41;;;13.36;58.74
57600;BME280;43426;43.594;24.334;2023-05-03T06:05:30;101661.31;;;13.40;59.22
57600;BME280;43426;43.594;24.334;2023-05-03T06:07:56;101660.16;;;13.51;59.58
57600;BME280;43426;43.594;24.334;2023-05-03T06:10:21;101659.81;;;13.70;59.63
57600;BME280;43426;43.594;24.334;2023-05-03T06:12:46;101658.13;;;13.77;58.40
57600;BME280;43426;43.594;24.334;2023-05-03T06:15:12;101662.88;;;13.92;58.35
57600;BME280;43426;43.594;24.334;2023-05-03T06:17:37;101673.22;;;13.88;57.51
57600;BME280;43426;43.594;24.334;2023-05-03T06:20:02;101668.28;;;14.17;57.44
57600;BME280;43426;43.594;24.334;2023-05-03T06:22:28;101675.84;;;14.62;57.40
57600;BME280;43426;43.594;24.334;2023-05-03T06:24:54;101671.84;;;14.90;55.08
57600;BME280;43426;43.594;24.334;2023-05-03T06:27:19;101671.19;;;15.19;54.40
57600;BME280;43426;43.594;24.334;2023-05-03T06:29:45;101680.16;;;15.51;53.48
57600;BME280;43426;43.594;24.334;2023-05-03T06:32:11;101675.72;;;15.73;52.54
57600;BME280;43426;43.594;24.334;2023-05-03T06:34:36;101669.00;;;16.07;52.14
57600;BME280;43426;43.594;24.334;2023-05-03T06:37:04;101672.88;;;16.28;51.83
57600;BME280;43426;43.594;24.334;2023-05-03T06:39:29;101679.09;;;16.51;50.73
57600;BME280;43426;43.594;24.334;2023-05-03T06:41:55;101675.88;;;17.08;49.74
57600;BME280;43426;43.594;24.334;2023-05-03T06:44:20;101665.94;;;17.58;48.56
57600;BME280;43426;43.594;24.334;2023-05-03T06:46:45;101673.28;;;18.01;48.25
57600;BME280;43426;43.594;24.334;2023-05-03T06:49:11;101686.50;;;18.26;46.18
57600;BME280;43426;43.594;24.334;2023-05-03T06:51:36;101688.41;;;18.25;45.73
57600;BME280;43426;43.594;24.334;2023-05-03T06:54:01;101686.09;;;18.29;45.99
57600;BME280;43426;43.594;24.334;2023-05-03T06:56:34;101687.47;;;18.46;46.21
57600;BME280;43426;43.594;24.334;2023-05-03T06:58:59;101689.41;;;18.52;45.33
57600;BME280;43426;43.594;24.334;2023-05-03T07:01:25;101690.22;;;18.46;44.69
57600;BME280;43426;43.594;24.334;2023-05-03T07:03:50;101691.59;;;18.64;44.66
57600;BME280;43426;43.594;24.334;2023-05-03T07:06:16;101693.38;;;18.85;44.71
57600;BME280;43426;43.594;24.334;2023-05-03T07:08:42;101698.03;;;18.84;45.32
57600;BME280;43426;43.594;24.334;2023-05-03T07:11:07;101701.97;;;18.75;44.74
57600;BME280;43426;43.594;24.334;2023-05-03T07:13:34;101695.13;;;18.93;44.40
57600;BME280;43426;43.594;24.334;2023-05-03T07:15:59;101704.81;;;18.88;43.68
57600;BME280;43426;43.594;24.334;2023-05-03T07:18:25;101699.19;;;19.10;45.00
57600;BME280;43426;43.594;24.334;2023-05-03T07:20:51;101706.16;;;19.13;43.08
57600;BME280;43426;43.594;24.334;2023-05-03T07:23:16;101707.00;;;19.13;44.23
57600;BME280;43426;43.594;24.334;2023-05-03T07:25:41;101719.28;;;19.31;43.68
57600;BME280;43426;43.594;24.334;2023-05-03T07:28:07;101706.59;;;19.23;44.10
57600;BME280;43426;43.594;24.334;2023-05-03T07:30:32;101702.81;;;19.24;43.84
57600;BME280;43426;43.594;24.334;2023-05-03T07:32:57;101703.94;;;19.43;44.74
57600;BME280;43426;43.594;24.334;2023-05-03T07:35:22;101700.81;;;19.60;43.88
57600;BME280;43426;43.594;24.334;2023-05-03T07:37:48;101696.19;;;19.60;43.00
57600;BME280;43426;43.594;24.334;2023-05-03T07:40:13;101691.19;;;20.04;42.92
57600;BME280;43426;43.594;24.334;2023-05-03T07:42:38;101689.47;;;20.43;42.70
57600;BME280;43426;43.594;24.334;2023-05-03T07:45:04;101689.56;;;20.95;41.17
57600;BME280;43426;43.594;24.334;2023-05-03T07:47:30;101691.84;;;21.12;40.60
57600;BME280;43426;43.594;24.334;2023-05-03T07:49:56;101686.72;;;21.15;39.14
57600;BME280;43426;43.594;24.334;2023-05-03T07:52:22;101689.56;;;20.95;40.37
57600;BME280;43426;43.594;24.334;2023-05-03T07:54:47;101700.41;;;20.70;40.40
57600;BME280;43426;43.594;24.334;2023-05-03T07:57:12;101695.13;;;20.75;40.95
57600;BME280;43426;43.594;24.334;2023-05-03T07:59:38;101697.78;;;21.02;41.14
57600;BME280;43426;43.594;24.334;2023-05-03T08:02:03;101683.13;;;21.21;40.79
57600;BME280;43426;43.594;24.334;2023-05-03T08:04:28;101699.56;;;20.76;40.34
57600;BME280;43426;43.594;24.334;2023-05-03T08:06:54;101698.94;;;20.67;40.89
57600;BME280;43426;43.594;24.334;2023-05-03T08:09:19;101698.19;;;21.05;40.23
57600;BME280;43426;43.594;24.334;2023-05-03T08:11:44;101705.44;;;21.32;40.33
57600;BME280;43426;43.594;24.334;2023-05-03T08:14:10;101687.78;;;21.59;40.52
57600;BME280;43426;43.594;24.334;2023-05-03T08:16:35;101694.88;;;21.74;38.93
57600;BME280;43426;43.594;24.334;2023-05-03T08:19:00;101690.41;;;22.05;39.56
57600;BME280;43426;43.594;24.334;2023-05-03T08:21:26;101688.13;;;22.20;38.98
57600;BME280;43426;43.594;24.334;2023-05-03T08:23:52;101673.78;;;22.43;38.50
57600;BME280;43426;43.594;24.334;2023-05-03T08:26:18;101676.75;;;22.60;38.96
57600;BME280;43426;43.594;24.334;2023-05-03T08:28:46;101675.25;;;22.83;37.57
57600;BME280;43426;43.594;24.334;2023-05-03T08:31:11;101678.00;;;22.83;36.11
57600;BME280;43426;43.594;24.334;2023-05-03T08:33:36;101672.94;;;22.99;36.63
57600;BME280;43426;43.594;24.334;2023-05-03T08:36:02;101665.78;;;22.79;37.01
57600;BME280;43426;43.594;24.334;2023-05-03T08:38:27;101654.75;;;22.60;37.63
57600;BME280;43426;43.594;24.334;2023-05-03T08:40:54;101653.78;;;22.36;37.97
57600;BME280;43426;43.594;24.334;2023-05-03T08:43:19;101643.00;;;21.84;38.96
57600;BME280;43426;43.594;24.334;2023-05-03T08:45:45;101645.78;;;21.52;39.62
57600;BME280;43426;43.594;24.334;2023-05-03T08:48:11;101652.59;;;21.36;39.63
57600;BME280;43426;43.594;24.334;2023-05-03T08:50:37;101652.19;;;21.39;39.78
57600;BME280;43426;43.594;24.334;2023-05-03T08:53:07;101654.53;;;21.36;39.94
57600;BME280;43426;43.594;24.334;2023-05-03T08:55:32;101643.84;;;21.21;39.44
57600;BME280;43426;43.594;24.334;2023-05-03T08:57:58;101641.69;;;20.91;39.63
57600;BME280;43426;43.594;24.334;2023-05-03T09:00:27;101628.69;;;20.73;40.52
57600;BME280;43426;43.594;24.334;2023-05-03T09:02:56;101632.06;;;20.68;40.52
57600;BME280;43426;43.594;24.334;2023-05-03T09:08:29;101627.75;;;20.92;40.42
57600;BME280;43426;43.594;24.334;2023-05-03T09:10:37;101623.59;;;20.77;39.66
57600;BME280;43426;43.594;24.334;2023-05-03T09:13:03;101618.75;;;20.65;40.04
57600;BME280;43426;43.594;24.334;2023-05-03T09:15:28;101618.63;;;20.40;42.18
57600;BME280;43426;43.594;24.334;2023-05-03T09:20:35;101614.88;;;20.07;40.50
57600;BME280;43426;43.594;24.334;2023-05-03T09:23:00;101619.09;;;19.70;41.67
57600;BME280;43426;43.594;24.334;2023-05-03T09:25:38;101614.88;;;19.47;42.69
57600;BME280;43426;43.594;24.334;2023-05-03T09:28:04;101617.16;;;19.23;43.61
57600;BME280;43426;43.594;24.334;2023-05-03T09:30:29;101623.06;;;19.34;43.47
57600;BME280;43426;43.594;24.334;2023-05-03T09:32:54;101613.94;;;18.93;43.95
57600;BME280;43426;43.594;24.334;2023-05-03T09:35:19;101603.00;;;19.00;44.98
57600;BME280;43426;43.594;24.334;2023-05-03T09:37:45;101608.06;;;19.03;45.13
57600;BME280;43426;43.594;24.334;2023-05-03T09:40:10;101598.41;;;19.07;43.84
57600;BME280;43426;43.594;24.334;2023-05-03T09:42:43;101600.66;;;18.97;43.43
57600;BME280;43426;43.594;24.334;2023-05-03T09:45:27;101602.94;;;18.86;44.76
57600;BME280;43426;43.594;24.334;2023-05-03T09:47:52;101605.53;;;19.01;45.96
57600;BME280;43426;43.594;24.334;2023-05-03T09:50:20;101604.31;;;19.17;46.04
57600;BME280;43426;43.594;24.334;2023-05-03T09:52:45;101602.88;;;19.35;45.49
57600;BME280;43426;43.594;24.334;2023-05-03T09:55:11;101601.84;;;19.69;45.30
57600;BME280;43426;43.594;24.334;2023-05-03T09:57:36;101612.81;;;19.96;44.19
57600;BME280;43426;43.594;24.334;2023-05-03T10:00:02;101613.22;;;19.93;43.66
57600;BME280;43426;43.594;24.334;2023-05-03T10:02:29;101606.66;;;20.07;43.53
57600;BME280;43426;43.594;24.334;2023-05-03T10:04:55;101609.81;;;20.24;42.88
57600;BME280;43426;43.594;24.334;2023-05-03T10:07:23;101596.91;;;20.97;43.20
57600;BME280;43426;43.594;24.334;2023-05-03T10:09:50;101602.56;;;21.91;39.16
57600;BME280;43426;43.594;24.334;2023-05-03T10:12:15;101606.59;;;22.33;39.80
57600;BME280;43426;43.594;24.334;2023-05-03T10:14:45;101599.78;;;22.91;39.15
57600;BME280;43426;43.594;24.334;2023-05-03T10:17:21;101604.78;;;22.64;37.76
57600;BME280;43426;43.594;24.334;2023-05-03T10:19:51;101620.22;;;22.46;39.59
57600;BME280;43426;43.594;24.334;2023-05-03T10:22:17;101612.22;;;22.44;38.95
57600;BME280;43426;43.594;24.334;2023-05-03T10:27:49;101601.41;;;22.24;39.34
57600;BME280;43426;43.594;24.334;2023-05-03T10:32:50;101602.28;;;21.49;41.19
57600;BME280;43426;43.594;24.334;2023-05-03T10:35:15;101603.91;;;21.57;40.28
57600;BME280;43426;43.594;24.334;2023-05-03T10:37:41;101597.13;;;21.85;40.70
57600;BME280;43426;43.594;24.334;2023-05-03T10:40:11;101600.38;;;22.00;39.11
57600;BME280;43426;43.594;24.334;2023-05-03T10:42:37;101601.38;;;22.06;39.91
57600;BME280;43426;43.594;24.334;2023-05-03T10:45:03;101593.78;;;22.26;40.37
57600;BME280;43426;43.594;24.334;2023-05-03T10:47:29;101592.09;;;22.25;39.47
57600;BME280;43426;43.594;24.334;2023-05-03T10:55:10;101606.22;;;21.85;38.05
57600;BME280;43426;43.594;24.334;2023-05-03T10:57:36;101596.28;;;22.28;38.00
57600;BME280;43426;43.594;24.334;2023-05-03T11:00:10;101595.00;;;22.31;37.80
57600;BME280;43426;43.594;24.334;2023-05-03T11:02:37;101595.72;;;22.19;35.67
57600;BME280;43426;43.594;24.334;2023-05-03T11:05:06;101584.19;;;21.92;35.00
57600;BME280;43426;43.594;24.334;2023-05-03T11:07:33;101573.41;;;22.34;36.68
57600;BME280;43426;43.594;24.334;2023-05-03T11:09:58;101568.78;;;22.95;35.54
57600;BME280;43426;43.594;24.334;2023-05-03T11:12:23;101566.66;;;23.40;33.22
57600;BME280;43426;43.594;24.334;2023-05-03T11:14:49;101566.69;;;23.09;33.74
57600;BME280;43426;43.594;24.334;2023-05-03T11:17:14;101566.69;;;23.09;34.60
57600;BME280;43426;43.594;24.334;2023-05-03T11:19:40;101564.94;;;23.15;34.50
57600;BME280;43426;43.594;24.334;2023-05-03T11:22:06;101554.19;;;23.25;33.90
57600;BME280;43426;43.594;24.334;2023-05-03T11:24:32;101557.31;;;23.41;34.04
57600;BME280;43426;43.594;24.334;2023-05-03T11:26:57;101552.16;;;22.90;34.17
57600;BME280;43426;43.594;24.334;2023-05-03T11:29:23;101558.72;;;22.89;35.02
57600;BME280;43426;43.594;24.334;2023-05-03T11:31:48;101550.09;;;23.16;35.69
57600;BME280;43426;43.594;24.334;2023-05-03T11:34:14;101549.50;;;23.26;34.93
57600;BME280;43426;43.594;24.334;2023-05-03T11:36:40;101535.28;;;23.41;34.39
57600;BME280;43426;43.594;24.334;2023-05-03T11:39:08;101540.59;;;23.54;34.99
57600;BME280;43426;43.594;24.334;2023-05-03T11:41:35;101529.66;;;23.24;35.05
57600;BME280;43426;43.594;24.334;2023-05-03T11:44:00;101531.28;;;22.83;35.61
57600;BME280;43426;43.594;24.334;2023-05-03T11:46:26;101528.72;;;23.00;35.54
57600;BME280;43426;43.594;24.334;2023-05-03T11:48:52;101527.47;;;23.14;34.18
57600;BME280;43426;43.594;24.334;2023-05-03T11:51:21;101521.03;;;23.44;35.48
57600;BME280;43426;43.594;24.334;2023-05-03T11:53:46;101523.59;;;23.45;34.52
57600;BME280;43426;43.594;24.334;2023-05-03T11:56:12;101516.28;;;23.51;33.58
57600;BME280;43426;43.594;24.334;2023-05-03T11:58:55;101518.06;;;23.69;33.77
57600;BME280;43426;43.594;24.334;2023-05-03T12:01:25;101503.56;;;23.50;34.02
57600;BME280;43426;43.594;24.334;2023-05-03T12:03:57;101512.91;;;23.85;33.52
57600;BME280;43426;43.594;24.334;2023-05-03T12:06:23;101502.59;;;23.80;32.93
57600;BME280;43426;43.594;24.334;2023-05-03T12:08:49;101510.41;;;23.59;34.29
57600;BME280;43426;43.594;24.334;2023-05-03T12:11:14;101504.03;;;23.59;33.43
57600;BME280;43426;43.594;24.334;2023-05-03T12:13:40;101505.47;;;23.61;33.70
57600;BME280;43426;43.594;24.334;2023-05-03T12:16:06;101494.59;;;23.43;34.80
57600;BME280;43426;43.594;24.334;2023-05-03T12:18:47;101494.81;;;23.53;34.92
57600;BME280;43426;43.594;24.334;2023-05-03T12:21:23;101499.94;;;23.26;35.28
57600;BME280;43426;43.594;24.334;2023-05-03T12:23:48;101499.63;;;23.04;35.13
57600;BME280;43426;43.594;24.334;2023-05-03T12:26:15;101491.00;;;22.88;34.65
57600;BME280;43426;43.594;24.334;2023-05-03T12:28:44;101494.47;;;22.84;34.12
57600;BME280;43426;43.594;24.334;2023-05-03T12:31:11;101474.94;;;23.16;35.50
57600;BME280;43426;43.594;24.334;2023-05-03T12:33:37;101465.22;;;23.13;34.78
57600;BME280;43426;43.594;24.334;2023-05-03T12:36:03;101475.63;;;23.11;33.81
57600;BME280;43426;43.594;24.334;2023-05-03T12:38:28;101475.41;;;23.24;33.89
57600;BME280;43426;43.594;24.334;2023-05-03T12:40:53;101458.53;;;23.33;34.79
57600;BME280;43426;43.594;24.334;2023-05-03T12:43:18;101450.34;;;23.85;36.03
57600;BME280;43426;43.594;24.334;2023-05-03T12:45:44;101440.03;;;24.33;34.87
57600;BME280;43426;43.594;24.334;2023-05-03T12:48:09;101432.41;;;24.23;33.24
57600;BME280;43426;43.594;24.334;2023-05-03T12:50:35;101431.38;;;24.41;33.81
57600;BME280;43426;43.594;24.334;2023-05-03T12:53:00;101419.88;;;24.61;34.88
57600;BME280;43426;43.594;24.334;2023-05-03T12:55:28;101410.38;;;24.86;33.38
57600;BME280;43426;43.594;24.334;2023-05-03T12:57:57;101421.78;;;24.44;34.27
57600;BME280;43426;43.594;24.334;2023-05-03T13:00:23;101410.09;;;24.25;34.51
57600;BME280;43426;43.594;24.334;2023-05-03T13:02:49;101400.09;;;24.36;34.33
57600;BME280;43426;43.594;24.334;2023-05-03T13:05:15;101396.31;;;24.88;34.73